sensor_id;sensor_type;location;lat;lon;timestamp;P1;durP1;ratioP1;P2;durP2;ratioP2
55718;SDS011;41623;46.104;19.656;2022-10-26T00:00:23;4.65;;;2.47;;
55718;SDS011;41623;46.104;19.656;2022-10-26T00:02:50;5.47;;;2.53;;
55718;SDS011;41623;46.104;19.656;2022-10-26T00:05:17;5.05;;;2.28;;
55718;SDS011;41623;46.104;19.656;2022-10-26T00:07:43;3.70;;;2.15;;
55718;SDS011;41623;46.104;19.656;2022-10-26T00:10:09;4.57;;;2.50;;
55718;SDS011;41623;46.104;19.656;2022-10-26T00:12:34;4.53;;;3.00;;
55718;SDS011;41623;46.104;19.656;2022-10-26T00:15:00;5.57;;;2.95;;
55718;SDS011;41623;46.104;19.656;2022-10-26T00:17:26;4.18;;;2.60;;
55718;SDS011;41623;46.104;19.656;2022-10-26T00:19:51;5.82;;;3.25;;
55718;SDS011;41623;46.104;19.656;2022-10-26T00:22:17;5.07;;;2.90;;
55718;SDS011;41623;46.104;19.656;2022-10-26T00:24:43;8.57;;;2.92;;
55718;SDS011;41623;46.104;19.656;2022-10-26T00:27:09;13.02;;;4.15;;
55718;SDS011;41623;46.104;19.656;2022-10-26T00:29:35;6.22;;;2.88;;
55718;SDS011;41623;46.104;19.656;2022-10-26T00:32:00;7.00;;;3.17;;
55718;SDS011;41623;46.104;19.656;2022-10-26T00:34:26;3.83;;;2.53;;
55718;SDS011;41623;46.104;19.656;2022-10-26T00:36:52;4.03;;;2.63;;
55718;SDS011;41623;46.104;19.656;2022-10-26T00:39:17;7.80;;;3.70;;
55718;SDS011;41623;46.104;19.656;2022-10-26T00:41:43;5.40;;;3.78;;
55718;SDS011;41623;46.104;19.656;2022-10-26T00:47:20;7.28;;;3.00;;
55718;SDS011;41623;46.104;19.656;2022-10-26T00:49:57;5.70;;;2.92;;
55718;SDS011;41623;46.104;19.656;2022-10-26T00:52:26;9.73;;;4.20;;
55718;SDS011;41623;46.104;19.656;2022-10-26T00:54:53;5.18;;;2.90;;
55718;SDS011;41623;46.104;19.656;2022-10-26T00:57:19;7.38;;;2.85;;
55718;SDS011;41623;46.104;19.656;2022-10-26T00:59:45;15.77;;;3.55;;
55718;SDS011;41623;46.104;19.656;2022-10-26T01:02:13;5.18;;;2.83;;
55718;SDS011;41623;46.104;19.656;2022-10-26T01:04:38;6.13;;;3.25;;
55718;SDS011;41623;46.104;19.656;2022-10-26T01:07:04;9.68;;;3.97;;
55718;SDS011;41623;46.104;19.656;2022-10-26T01:09:31;11.55;;;3.80;;
55718;SDS011;41623;46.104;19.656;2022-10-26T01:11:58;10.07;;;3.53;;
55718;SDS011;41623;46.104;19.656;2022-10-26T01:14:24;9.57;;;4.03;;
55718;SDS011;41623;46.104;19.656;2022-10-26T01:17:01;9.50;;;3.40;;
55718;SDS011;41623;46.104;19.656;2022-10-26T01:25:41;10.63;;;3.70;;
55718;SDS011;41623;46.104;19.656;2022-10-26T01:28:21;8.63;;;3.55;;
55718;SDS011;41623;46.104;19.656;2022-10-26T01:31:05;6.93;;;4.00;;
55718;SDS011;41623;46.104;19.656;2022-10-26T01:33:41;18.30;;;3.22;;
55718;SDS011;41623;46.104;19.656;2022-10-26T01:36:18;5.03;;;3.80;;
55718;SDS011;41623;46.104;19.656;2022-10-26T01:39:00;11.27;;;4.10;;
55718;SDS011;41623;46.104;19.656;2022-10-26T01:41:38;7.68;;;3.40;;
55718;SDS011;41623;46.104;19.656;2022-10-26T01:44:15;12.38;;;3.53;;
55718;SDS011;41623;46.104;19.656;2022-10-26T01:46:46;13.93;;;3.85;;
55718;SDS011;41623;46.104;19.656;2022-10-26T01:49:15;16.73;;;4.10;;
55718;SDS011;41623;46.104;19.656;2022-10-26T01:51:45;9.35;;;3.20;;
55718;SDS011;41623;46.104;19.656;2022-10-26T01:54:13;5.10;;;3.17;;
55718;SDS011;41623;46.104;19.656;2022-10-26T01:56:40;8.98;;;2.97;;
55718;SDS011;41623;46.104;19.656;2022-10-26T02:11:09;9.45;;;2.47;;
55718;SDS011;41623;46.104;19.656;2022-10-26T02:13:51;2.72;;;1.90;;
55718;SDS011;41623;46.104;19.656;2022-10-26T02:19:07;8.93;;;3.00;;
55718;SDS011;41623;46.104;19.656;2022-10-26T02:21:37;3.13;;;2.00;;
55718;SDS011;41623;46.104;19.656;2022-10-26T02:24:09;3.63;;;2.13;;
55718;SDS011;41623;46.104;19.656;2022-10-26T02:26:38;3.28;;;1.88;;
55718;SDS011;41623;46.104;19.656;2022-10-26T02:29:06;3.35;;;1.77;;
55718;SDS011;41623;46.104;19.656;2022-10-26T02:31:35;6.47;;;1.58;;
55718;SDS011;41623;46.104;19.656;2022-10-26T02:34:04;7.15;;;1.80;;
55718;SDS011;41623;46.104;19.656;2022-10-26T02:36:33;4.43;;;2.22;;
55718;SDS011;41623;46.104;19.656;2022-10-26T02:39:02;9.07;;;2.28;;
55718;SDS011;41623;46.104;19.656;2022-10-26T02:41:30;4.93;;;2.15;;
55718;SDS011;41623;46.104;19.656;2022-10-26T02:46:33;6.90;;;2.22;;
55718;SDS011;41623;46.104;19.656;2022-10-26T02:48:58;4.28;;;1.73;;
55718;SDS011;41623;46.104;19.656;2022-10-26T02:57:09;2.47;;;1.67;;
55718;SDS011;41623;46.104;19.656;2022-10-26T02:59:43;3.83;;;1.85;;
55718;SDS011;41623;46.104;19.656;2022-10-26T03:02:14;2.30;;;1.70;;
55718;SDS011;41623;46.104;19.656;2022-10-26T03:04:41;4.30;;;1.67;;
55718;SDS011;41623;46.104;19.656;2022-10-26T03:07:07;1.98;;;1.45;;
55718;SDS011;41623;46.104;19.656;2022-10-26T03:09:33;2.88;;;1.90;;
55718;SDS011;41623;46.104;19.656;2022-10-26T03:11:59;5.10;;;2.00;;
55718;SDS011;41623;46.104;19.656;2022-10-26T03:14:25;1.90;;;1.33;;
55718;SDS011;41623;46.104;19.656;2022-10-26T03:16:50;2.50;;;1.58;;
55718;SDS011;41623;46.104;19.656;2022-10-26T03:19:16;2.95;;;1.63;;
55718;SDS011;41623;46.104;19.656;2022-10-26T03:21:42;3.38;;;1.80;;
55718;SDS011;41623;46.104;19.656;2022-10-26T03:24:08;2.47;;;1.83;;
55718;SDS011;41623;46.104;19.656;2022-10-26T03:26:34;3.22;;;1.73;;
55718;SDS011;41623;46.104;19.656;2022-10-26T03:29:00;2.50;;;1.80;;
55718;SDS011;41623;46.104;19.656;2022-10-26T03:31:25;3.58;;;1.60;;
55718;SDS011;41623;46.104;19.656;2022-10-26T03:33:51;2.75;;;1.67;;
55718;SDS011;41623;46.104;19.656;2022-10-26T03:36:17;2.40;;;1.45;;
55718;SDS011;41623;46.104;19.656;2022-10-26T03:38:43;2.03;;;1.60;;
55718;SDS011;41623;46.104;19.656;2022-10-26T03:41:08;2.97;;;1.67;;
55718;SDS011;41623;46.104;19.656;2022-10-26T03:43:34;3.28;;;1.95;;
55718;SDS011;41623;46.104;19.656;2022-10-26T03:46:00;3.00;;;1.95;;
55718;SDS011;41623;46.104;19.656;2022-10-26T03:48:25;2.53;;;1.92;;
55718;SDS011;41623;46.104;19.656;2022-10-26T03:50:51;4.05;;;2.40;;
55718;SDS011;41623;46.104;19.656;2022-10-26T03:53:21;2.97;;;2.08;;
55718;SDS011;41623;46.104;19.656;2022-10-26T03:55:46;12.73;;;2.53;;
55718;SDS011;41623;46.104;19.656;2022-10-26T03:58:12;3.10;;;2.55;;
55718;SDS011;41623;46.104;19.656;2022-10-26T04:00:38;4.07;;;2.53;;
55718;SDS011;41623;46.104;19.656;2022-10-26T04:03:03;4.05;;;2.63;;
55718;SDS011;41623;46.104;19.656;2022-10-26T04:05:29;3.42;;;2.03;;
55718;SDS011;41623;46.104;19.656;2022-10-26T04:07:58;2.50;;;1.98;;
55718;SDS011;41623;46.104;19.656;2022-10-26T04:10:27;5.47;;;2.70;;
55718;SDS011;41623;46.104;19.656;2022-10-26T04:12:54;3.08;;;2.30;;
55718;SDS011;41623;46.104;19.656;2022-10-26T04:15:20;11.68;;;2.92;;
55718;SDS011;41623;46.104;19.656;2022-10-26T04:17:46;2.45;;;2.00;;
55718;SDS011;41623;46.104;19.656;2022-10-26T04:20:12;8.70;;;2.75;;
55718;SDS011;41623;46.104;19.656;2022-10-26T04:22:38;5.18;;;2.60;;
55718;SDS011;41623;46.104;19.656;2022-10-26T04:25:05;6.05;;;3.13;;
55718;SDS011;41623;46.104;19.656;2022-10-26T04:27:31;4.32;;;3.33;;
55718;SDS011;41623;46.104;19.656;2022-10-26T04:29:57;5.90;;;3.50;;
55718;SDS011;41623;46.104;19.656;2022-10-26T04:32:23;5.85;;;2.53;;
55718;SDS011;41623;46.104;19.656;2022-10-26T04:34:49;12.73;;;3.58;;
55718;SDS011;41623;46.104;19.656;2022-10-26T04:37:14;7.13;;;3.13;;
55718;SDS011;41623;46.104;19.656;2022-10-26T04:39:40;20.33;;;4.45;;
55718;SDS011;41623;46.104;19.656;2022-10-26T04:42:06;7.60;;;4.32;;
55718;SDS011;41623;46.104;19.656;2022-10-26T04:44:31;10.25;;;4.45;;
55718;SDS011;41623;46.104;19.656;2022-10-26T04:46:57;11.00;;;5.35;;
55718;SDS011;41623;46.104;19.656;2022-10-26T04:49:23;7.85;;;4.28;;
55718;SDS011;41623;46.104;19.656;2022-10-26T04:51:48;8.63;;;4.60;;
55718;SDS011;41623;46.104;19.656;2022-10-26T04:54:14;5.97;;;4.40;;
55718;SDS011;41623;46.104;19.656;2022-10-26T04:56:40;6.10;;;4.05;;
55718;SDS011;41623;46.104;19.656;2022-10-26T04:59:06;11.40;;;4.65;;
55718;SDS011;41623;46.104;19.656;2022-10-26T05:01:31;13.95;;;3.85;;
55718;SDS011;41623;46.104;19.656;2022-10-26T05:03:57;7.85;;;3.63;;
55718;SDS011;41623;46.104;19.656;2022-10-26T05:06:23;6.30;;;3.80;;
55718;SDS011;41623;46.104;19.656;2022-10-26T05:08:48;7.38;;;3.95;;
55718;SDS011;41623;46.104;19.656;2022-10-26T05:11:14;5.88;;;4.15;;
55718;SDS011;41623;46.104;19.656;2022-10-26T05:13:40;10.52;;;3.78;;
55718;SDS011;41623;46.104;19.656;2022-10-26T05:16:06;7.53;;;4.53;;
55718;SDS011;41623;46.104;19.656;2022-10-26T05:18:32;4.35;;;2.75;;
55718;SDS011;41623;46.104;19.656;2022-10-26T05:20:58;5.35;;;2.92;;
55718;SDS011;41623;46.104;19.656;2022-10-26T05:23:24;8.85;;;4.63;;
55718;SDS011;41623;46.104;19.656;2022-10-26T05:25:49;4.32;;;3.00;;
55718;SDS011;41623;46.104;19.656;2022-10-26T05:28:15;6.85;;;3.08;;
55718;SDS011;41623;46.104;19.656;2022-10-26T05:30:43;6.00;;;3.33;;
55718;SDS011;41623;46.104;19.656;2022-10-26T05:33:10;4.78;;;3.55;;
55718;SDS011;41623;46.104;19.656;2022-10-26T05:35:36;13.55;;;8.32;;
55718;SDS011;41623;46.104;19.656;2022-10-26T05:38:06;13.80;;;8.68;;
55718;SDS011;41623;46.104;19.656;2022-10-26T05:40:49;9.50;;;5.22;;
55718;SDS011;41623;46.104;19.656;2022-10-26T05:43:16;5.15;;;3.50;;
55718;SDS011;41623;46.104;19.656;2022-10-26T05:45:42;4.32;;;2.92;;
55718;SDS011;41623;46.104;19.656;2022-10-26T05:48:08;4.40;;;3.00;;
55718;SDS011;41623;46.104;19.656;2022-10-26T05:50:34;5.40;;;3.50;;
55718;SDS011;41623;46.104;19.656;2022-10-26T05:53:00;4.75;;;3.08;;
55718;SDS011;41623;46.104;19.656;2022-10-26T05:55:26;17.27;;;4.40;;
55718;SDS011;41623;46.104;19.656;2022-10-26T05:57:52;15.40;;;5.97;;
55718;SDS011;41623;46.104;19.656;2022-10-26T06:00:19;6.70;;;3.22;;
55718;SDS011;41623;46.104;19.656;2022-10-26T06:05:50;7.40;;;3.60;;
55718;SDS011;41623;46.104;19.656;2022-10-26T06:08:17;10.20;;;4.60;;
55718;SDS011;41623;46.104;19.656;2022-10-26T06:10:43;14.13;;;5.75;;
55718;SDS011;41623;46.104;19.656;2022-10-26T06:13:10;10.30;;;4.57;;
55718;SDS011;41623;46.104;19.656;2022-10-26T06:26:29;7.93;;;4.28;;
55718;SDS011;41623;46.104;19.656;2022-10-26T06:31:19;12.30;;;6.75;;
55718;SDS011;41623;46.104;19.656;2022-10-26T06:33:46;12.80;;;6.13;;
55718;SDS011;41623;46.104;19.656;2022-10-26T06:36:21;17.60;;;6.40;;
55718;SDS011;41623;46.104;19.656;2022-10-26T06:38:53;13.23;;;5.47;;
55718;SDS011;41623;46.104;19.656;2022-10-26T06:41:23;10.43;;;4.68;;
55718;SDS011;41623;46.104;19.656;2022-10-26T06:43:50;15.02;;;7.13;;
55718;SDS011;41623;46.104;19.656;2022-10-26T06:48:58;13.30;;;6.25;;
55718;SDS011;41623;46.104;19.656;2022-10-26T06:51:52;15.32;;;5.93;;
55718;SDS011;41623;46.104;19.656;2022-10-26T06:57:09;10.68;;;6.03;;
55718;SDS011;41623;46.104;19.656;2022-10-26T06:59:39;14.07;;;5.88;;
55718;SDS011;41623;46.104;19.656;2022-10-26T07:02:12;10.77;;;5.32;;
55718;SDS011;41623;46.104;19.656;2022-10-26T07:04:39;11.30;;;5.85;;
55718;SDS011;41623;46.104;19.656;2022-10-26T07:07:05;8.95;;;4.40;;
55718;SDS011;41623;46.104;19.656;2022-10-26T07:09:33;16.13;;;5.13;;
55718;SDS011;41623;46.104;19.656;2022-10-26T07:11:58;7.40;;;3.70;;
55718;SDS011;41623;46.104;19.656;2022-10-26T07:14:24;13.70;;;5.53;;
55718;SDS011;41623;46.104;19.656;2022-10-26T07:16:50;11.35;;;6.00;;
55718;SDS011;41623;46.104;19.656;2022-10-26T07:19:17;11.95;;;5.85;;
55718;SDS011;41623;46.104;19.656;2022-10-26T07:21:42;13.20;;;6.50;;
55718;SDS011;41623;46.104;19.656;2022-10-26T07:24:08;12.32;;;4.50;;
55718;SDS011;41623;46.104;19.656;2022-10-26T07:26:34;7.85;;;4.00;;
55718;SDS011;41623;46.104;19.656;2022-10-26T07:29:00;7.55;;;3.15;;
55718;SDS011;41623;46.104;19.656;2022-10-26T07:31:26;3.67;;;2.60;;
55718;SDS011;41623;46.104;19.656;2022-10-26T07:33:54;3.92;;;2.75;;
55718;SDS011;41623;46.104;19.656;2022-10-26T07:36:20;5.13;;;2.63;;
55718;SDS011;41623;46.104;19.656;2022-10-26T07:38:46;3.40;;;2.60;;
55718;SDS011;41623;46.104;19.656;2022-10-26T07:41:16;5.38;;;2.83;;
55718;SDS011;41623;46.104;19.656;2022-10-26T07:43:41;23.08;;;3.70;;
55718;SDS011;41623;46.104;19.656;2022-10-26T07:46:09;8.25;;;3.38;;
55718;SDS011;41623;46.104;19.656;2022-10-26T07:48:35;5.60;;;3.13;;
55718;SDS011;41623;46.104;19.656;2022-10-26T07:51:01;4.13;;;2.97;;
55718;SDS011;41623;46.104;19.656;2022-10-26T07:53:26;10.48;;;2.95;;
55718;SDS011;41623;46.104;19.656;2022-10-26T07:55:53;9.90;;;3.22;;
55718;SDS011;41623;46.104;19.656;2022-10-26T07:58:19;6.20;;;2.83;;
55718;SDS011;41623;46.104;19.656;2022-10-26T08:00:48;5.18;;;3.08;;
55718;SDS011;41623;46.104;19.656;2022-10-26T08:03:14;6.00;;;2.80;;
55718;SDS011;41623;46.104;19.656;2022-10-26T08:05:40;3.78;;;2.63;;
55718;SDS011;41623;46.104;19.656;2022-10-26T08:08:06;5.85;;;3.03;;
55718;SDS011;41623;46.104;19.656;2022-10-26T08:10:32;7.05;;;4.38;;
55718;SDS011;41623;46.104;19.656;2022-10-26T08:12:58;8.18;;;3.45;;
55718;SDS011;41623;46.104;19.656;2022-10-26T08:15:24;5.47;;;3.33;;
55718;SDS011;41623;46.104;19.656;2022-10-26T08:17:50;5.05;;;2.65;;
55718;SDS011;41623;46.104;19.656;2022-10-26T08:20:15;5.78;;;3.00;;
55718;SDS011;41623;46.104;19.656;2022-10-26T08:22:41;2.72;;;2.00;;
55718;SDS011;41623;46.104;19.656;2022-10-26T08:25:07;3.95;;;2.38;;
55718;SDS011;41623;46.104;19.656;2022-10-26T08:27:33;3.75;;;1.98;;
55718;SDS011;41623;46.104;19.656;2022-10-26T08:29:58;3.10;;;1.92;;
55718;SDS011;41623;46.104;19.656;2022-10-26T08:32:24;2.75;;;1.98;;
55718;SDS011;41623;46.104;19.656;2022-10-26T08:34:50;3.45;;;1.65;;
55718;SDS011;41623;46.104;19.656;2022-10-26T08:37:16;2.55;;;1.48;;
55718;SDS011;41623;46.104;19.656;2022-10-26T08:39:41;3.53;;;1.80;;
55718;SDS011;41623;46.104;19.656;2022-10-26T08:44:41;16.02;;;2.72;;
55718;SDS011;41623;46.104;19.656;2022-10-26T08:49:49;2.20;;;1.75;;
55718;SDS011;41623;46.104;19.656;2022-10-26T08:52:17;3.85;;;1.90;;
55718;SDS011;41623;46.104;19.656;2022-10-26T08:54:49;3.70;;;1.95;;
55718;SDS011;41623;46.104;19.656;2022-10-26T08:57:25;3.90;;;2.10;;
55718;SDS011;41623;46.104;19.656;2022-10-26T09:00:00;5.57;;;2.65;;
55718;SDS011;41623;46.104;19.656;2022-10-26T09:02:31;3.13;;;2.15;;
55718;SDS011;41623;46.104;19.656;2022-10-26T09:04:57;2.53;;;1.35;;
55718;SDS011;41623;46.104;19.656;2022-10-26T09:26:54;1.73;;;1.23;;
55718;SDS011;41623;46.104;19.656;2022-10-26T09:29:22;2.03;;;1.27;;
55718;SDS011;41623;46.104;19.656;2022-10-26T09:31:53;1.70;;;1.60;;
55718;SDS011;41623;46.104;19.656;2022-10-26T09:34:23;3.97;;;1.30;;
55718;SDS011;41623;46.104;19.656;2022-10-26T09:36:53;1.65;;;1.38;;
55718;SDS011;41623;46.104;19.656;2022-10-26T09:39:27;2.07;;;1.47;;
55718;SDS011;41623;46.104;19.656;2022-10-26T09:42:10;2.22;;;1.60;;
55718;SDS011;41623;46.104;19.656;2022-10-26T09:44:50;3.97;;;1.48;;
55718;SDS011;41623;46.104;19.656;2022-10-26T09:47:38;2.17;;;1.80;;
55718;SDS011;41623;46.104;19.656;2022-10-26T09:52:36;2.55;;;1.65;;
55718;SDS011;41623;46.104;19.656;2022-10-26T09:55:02;1.52;;;1.17;;
55718;SDS011;41623;46.104;19.656;2022-10-26T09:57:28;3.67;;;2.20;;
55718;SDS011;41623;46.104;19.656;2022-10-26T09:59:54;2.28;;;2.03;;
55718;SDS011;41623;46.104;19.656;2022-10-26T10:02:33;2.75;;;1.02;;
55718;SDS011;41623;46.104;19.656;2022-10-26T10:05:00;1.63;;;1.52;;
55718;SDS011;41623;46.104;19.656;2022-10-26T10:07:26;2.20;;;1.75;;
55718;SDS011;41623;46.104;19.656;2022-10-26T10:12:50;1.35;;;1.23;;
55718;SDS011;41623;46.104;19.656;2022-10-26T10:15:21;1.08;;;1.05;;
55718;SDS011;41623;46.104;19.656;2022-10-26T10:17:51;1.85;;;1.40;;
55718;SDS011;41623;46.104;19.656;2022-10-26T10:20:32;2.08;;;1.30;;
55718;SDS011;41623;46.104;19.656;2022-10-26T10:22:59;1.27;;;1.08;;
55718;SDS011;41623;46.104;19.656;2022-10-26T10:27:58;0.95;;;0.95;;
55718;SDS011;41623;46.104;19.656;2022-10-26T10:30:28;4.10;;;1.67;;
55718;SDS011;41623;46.104;19.656;2022-10-26T10:33:06;1.52;;;1.42;;
55718;SDS011;41623;46.104;19.656;2022-10-26T10:35:35;4.70;;;1.80;;
55718;SDS011;41623;46.104;19.656;2022-10-26T10:38:02;3.05;;;1.65;;
55718;SDS011;41623;46.104;19.656;2022-10-26T10:40:28;1.92;;;1.38;;
55718;SDS011;41623;46.104;19.656;2022-10-26T10:43:05;1.30;;;1.00;;
55718;SDS011;41623;46.104;19.656;2022-10-26T10:45:36;1.23;;;1.05;;
55718;SDS011;41623;46.104;19.656;2022-10-26T10:50:29;0.88;;;0.88;;
55718;SDS011;41623;46.104;19.656;2022-10-26T11:01:14;2.45;;;1.58;;
55718;SDS011;41623;46.104;19.656;2022-10-26T11:04:10;1.27;;;1.10;;
55718;SDS011;41623;46.104;19.656;2022-10-26T11:06:34;0.68;;;0.68;;
55718;SDS011;41623;46.104;19.656;2022-10-26T11:09:04;2.53;;;1.25;;
55718;SDS011;41623;46.104;19.656;2022-10-26T11:11:37;0.75;;;0.75;;
55718;SDS011;41623;46.104;19.656;2022-10-26T11:14:38;0.80;;;0.80;;
55718;SDS011;41623;46.104;19.656;2022-10-26T11:17:18;1.00;;;0.95;;
55718;SDS011;41623;46.104;19.656;2022-10-26T11:22:37;3.47;;;1.55;;
55718;SDS011;41623;46.104;19.656;2022-10-26T11:27:46;1.63;;;1.15;;
55718;SDS011;41623;46.104;19.656;2022-10-26T11:30:19;1.38;;;1.27;;
55718;SDS011;41623;46.104;19.656;2022-10-26T11:35:20;1.70;;;1.38;;
55718;SDS011;41623;46.104;19.656;2022-10-26T11:37:54;1.48;;;1.08;;
55718;SDS011;41623;46.104;19.656;2022-10-26T11:40:27;0.98;;;0.98;;
55718;SDS011;41623;46.104;19.656;2022-10-26T11:43:15;0.95;;;0.93;;
55718;SDS011;41623;46.104;19.656;2022-10-26T11:46:10;2.08;;;1.80;;
55718;SDS011;41623;46.104;19.656;2022-10-26T11:54:31;1.13;;;1.00;;
55718;SDS011;41623;46.104;19.656;2022-10-26T11:57:01;1.88;;;1.48;;
55718;SDS011;41623;46.104;19.656;2022-10-26T11:59:30;1.40;;;1.23;;
55718;SDS011;41623;46.104;19.656;2022-10-26T12:02:01;0.80;;;0.80;;
55718;SDS011;41623;46.104;19.656;2022-10-26T12:04:36;1.00;;;1.00;;
55718;SDS011;41623;46.104;19.656;2022-10-26T12:07:05;0.88;;;0.88;;
55718;SDS011;41623;46.104;19.656;2022-10-26T12:09:37;3.15;;;0.73;;
55718;SDS011;41623;46.104;19.656;2022-10-26T12:12:08;0.77;;;0.77;;
55718;SDS011;41623;46.104;19.656;2022-10-26T12:17:38;1.70;;;1.02;;
55718;SDS011;41623;46.104;19.656;2022-10-26T12:20:12;2.00;;;1.65;;
55718;SDS011;41623;46.104;19.656;2022-10-26T12:22:59;1.00;;;0.90;;
55718;SDS011;41623;46.104;19.656;2022-10-26T12:25:28;1.58;;;1.48;;
55718;SDS011;41623;46.104;19.656;2022-10-26T12:27:55;1.10;;;1.00;;
55718;SDS011;41623;46.104;19.656;2022-10-26T12:30:23;1.20;;;1.10;;
55718;SDS011;41623;46.104;19.656;2022-10-26T12:32:54;1.42;;;1.30;;
55718;SDS011;41623;46.104;19.656;2022-10-26T12:35:34;2.65;;;1.23;;
55718;SDS011;41623;46.104;19.656;2022-10-26T12:43:33;3.10;;;2.80;;
55718;SDS011;41623;46.104;19.656;2022-10-26T12:48:40;4.75;;;1.25;;
55718;SDS011;41623;46.104;19.656;2022-10-26T12:56:54;1.40;;;1.30;;
55718;SDS011;41623;46.104;19.656;2022-10-26T13:07:48;2.22;;;1.60;;
55718;SDS011;41623;46.104;19.656;2022-10-26T13:10:16;1.25;;;1.15;;
55718;SDS011;41623;46.104;19.656;2022-10-26T13:17:53;1.38;;;1.23;;
55718;SDS011;41623;46.104;19.656;2022-10-26T13:20:31;2.85;;;1.23;;
55718;SDS011;41623;46.104;19.656;2022-10-26T13:23:00;2.80;;;1.20;;
55718;SDS011;41623;46.104;19.656;2022-10-26T13:25:28;2.78;;;2.10;;
55718;SDS011;41623;46.104;19.656;2022-10-26T13:27:57;1.65;;;1.50;;
55718;SDS011;41623;46.104;19.656;2022-10-26T13:30:42;1.20;;;1.10;;
55718;SDS011;41623;46.104;19.656;2022-10-26T13:33:13;3.10;;;1.00;;
55718;SDS011;41623;46.104;19.656;2022-10-26T13:35:44;1.52;;;1.25;;
55718;SDS011;41623;46.104;19.656;2022-10-26T13:38:10;3.55;;;1.15;;
55718;SDS011;41623;46.104;19.656;2022-10-26T13:40:39;2.35;;;1.60;;
55718;SDS011;41623;46.104;19.656;2022-10-26T13:43:08;1.63;;;1.10;;
55718;SDS011;41623;46.104;19.656;2022-10-26T13:45:47;0.80;;;0.80;;
55718;SDS011;41623;46.104;19.656;2022-10-26T13:48:21;1.58;;;1.00;;
55718;SDS011;41623;46.104;19.656;2022-10-26T13:51:13;1.25;;;1.15;;
55718;SDS011;41623;46.104;19.656;2022-10-26T13:56:24;2.25;;;1.10;;
55718;SDS011;41623;46.104;19.656;2022-10-26T14:01:28;6.78;;;1.25;;
55718;SDS011;41623;46.104;19.656;2022-10-26T14:03:55;2.58;;;1.33;;
55718;SDS011;41623;46.104;19.656;2022-10-26T14:08:47;6.18;;;2.17;;
55718;SDS011;41623;46.104;19.656;2022-10-26T14:11:16;2.40;;;1.33;;
55718;SDS011;41623;46.104;19.656;2022-10-26T14:13:45;3.17;;;1.48;;
55718;SDS011;41623;46.104;19.656;2022-10-26T14:16:14;3.22;;;2.53;;
55718;SDS011;41623;46.104;19.656;2022-10-26T14:18:44;9.85;;;2.00;;
55718;SDS011;41623;46.104;19.656;2022-10-26T14:21:13;3.95;;;1.92;;
55718;SDS011;41623;46.104;19.656;2022-10-26T14:23:54;8.98;;;1.42;;
55718;SDS011;41623;46.104;19.656;2022-10-26T14:26:25;2.17;;;1.55;;
55718;SDS011;41623;46.104;19.656;2022-10-26T14:28:54;2.58;;;1.60;;
55718;SDS011;41623;46.104;19.656;2022-10-26T14:31:30;2.67;;;1.67;;
55718;SDS011;41623;46.104;19.656;2022-10-26T14:33:58;1.85;;;1.45;;
55718;SDS011;41623;46.104;19.656;2022-10-26T14:36:32;2.97;;;1.63;;
55718;SDS011;41623;46.104;19.656;2022-10-26T14:39:17;2.33;;;2.00;;
55718;SDS011;41623;46.104;19.656;2022-10-26T14:41:57;3.15;;;2.08;;
55718;SDS011;41623;46.104;19.656;2022-10-26T14:44:25;3.13;;;2.17;;
55718;SDS011;41623;46.104;19.656;2022-10-26T14:46:51;6.65;;;2.25;;
55718;SDS011;41623;46.104;19.656;2022-10-26T14:49:19;6.10;;;2.70;;
55718;SDS011;41623;46.104;19.656;2022-10-26T14:51:47;3.58;;;2.00;;
55718;SDS011;41623;46.104;19.656;2022-10-26T14:54:28;3.58;;;1.75;;
55718;SDS011;41623;46.104;19.656;2022-10-26T14:56:55;6.85;;;2.47;;
55718;SDS011;41623;46.104;19.656;2022-10-26T14:59:28;3.05;;;2.28;;
55718;SDS011;41623;46.104;19.656;2022-10-26T15:09:36;7.70;;;2.67;;
55718;SDS011;41623;46.104;19.656;2022-10-26T15:12:03;4.05;;;2.85;;
55718;SDS011;41623;46.104;19.656;2022-10-26T15:14:30;5.45;;;3.42;;
55718;SDS011;41623;46.104;19.656;2022-10-26T15:16:56;17.88;;;2.75;;
55718;SDS011;41623;46.104;19.656;2022-10-26T15:19:23;5.95;;;2.72;;
55718;SDS011;41623;46.104;19.656;2022-10-26T15:21:51;4.45;;;2.53;;
55718;SDS011;41623;46.104;19.656;2022-10-26T15:26:55;6.63;;;2.58;;
55718;SDS011;41623;46.104;19.656;2022-10-26T15:29:38;5.53;;;2.53;;
55718;SDS011;41623;46.104;19.656;2022-10-26T15:32:46;4.40;;;2.47;;
55718;SDS011;41623;46.104;19.656;2022-10-26T15:37:39;9.70;;;2.03;;
55718;SDS011;41623;46.104;19.656;2022-10-26T15:40:05;7.35;;;3.10;;
55718;SDS011;41623;46.104;19.656;2022-10-26T15:42:35;6.05;;;2.00;;
55718;SDS011;41623;46.104;19.656;2022-10-26T15:45:03;3.17;;;1.75;;
55718;SDS011;41623;46.104;19.656;2022-10-26T15:47:37;3.83;;;2.58;;
55718;SDS011;41623;46.104;19.656;2022-10-26T15:50:03;5.25;;;2.13;;
55718;SDS011;41623;46.104;19.656;2022-10-26T15:52:30;3.50;;;2.15;;
55718;SDS011;41623;46.104;19.656;2022-10-26T15:54:56;6.78;;;2.80;;
55718;SDS011;41623;46.104;19.656;2022-10-26T15:57:23;7.43;;;3.13;;
55718;SDS011;41623;46.104;19.656;2022-10-26T15:59:51;2.80;;;1.90;;
55718;SDS011;41623;46.104;19.656;2022-10-26T16:02:16;2.72;;;1.73;;
55718;SDS011;41623;46.104;19.656;2022-10-26T16:04:42;1.60;;;1.42;;
55718;SDS011;41623;46.104;19.656;2022-10-26T16:07:10;3.70;;;2.20;;
55718;SDS011;41623;46.104;19.656;2022-10-26T16:09:38;7.10;;;1.80;;
55718;SDS011;41623;46.104;19.656;2022-10-26T16:12:05;4.25;;;2.00;;
55718;SDS011;41623;46.104;19.656;2022-10-26T16:14:40;6.10;;;2.85;;
55718;SDS011;41623;46.104;19.656;2022-10-26T16:17:05;5.97;;;1.67;;
55718;SDS011;41623;46.104;19.656;2022-10-26T16:19:32;7.07;;;2.05;;
55718;SDS011;41623;46.104;19.656;2022-10-26T16:21:58;11.05;;;2.15;;
55718;SDS011;41623;46.104;19.656;2022-10-26T16:24:26;5.95;;;2.10;;
55718;SDS011;41623;46.104;19.656;2022-10-26T16:26:52;4.05;;;1.98;;
55718;SDS011;41623;46.104;19.656;2022-10-26T16:29:18;4.10;;;1.55;;
55718;SDS011;41623;46.104;19.656;2022-10-26T16:31:45;7.53;;;1.98;;
55718;SDS011;41623;46.104;19.656;2022-10-26T16:34:11;11.38;;;2.55;;
55718;SDS011;41623;46.104;19.656;2022-10-26T16:36:37;5.35;;;1.90;;
55718;SDS011;41623;46.104;19.656;2022-10-26T16:39:03;6.53;;;1.95;;
55718;SDS011;41623;46.104;19.656;2022-10-26T16:41:29;1.42;;;1.33;;
55718;SDS011;41623;46.104;19.656;2022-10-26T16:43:56;3.38;;;1.42;;
55718;SDS011;41623;46.104;19.656;2022-10-26T16:46:22;3.67;;;2.03;;
55718;SDS011;41623;46.104;19.656;2022-10-26T16:48:48;1.77;;;1.30;;
55718;SDS011;41623;46.104;19.656;2022-10-26T16:51:22;2.75;;;1.55;;
55718;SDS011;41623;46.104;19.656;2022-10-26T16:53:51;2.28;;;1.67;;
55718;SDS011;41623;46.104;19.656;2022-10-26T16:56:19;4.68;;;1.50;;
55718;SDS011;41623;46.104;19.656;2022-10-26T16:58:47;2.55;;;2.05;;
55718;SDS011;41623;46.104;19.656;2022-10-26T17:01:13;2.40;;;1.30;;
55718;SDS011;41623;46.104;19.656;2022-10-26T17:03:43;4.18;;;2.17;;
55718;SDS011;41623;46.104;19.656;2022-10-26T17:06:13;2.88;;;1.95;;
55718;SDS011;41623;46.104;19.656;2022-10-26T17:08:40;2.63;;;1.73;;
55718;SDS011;41623;46.104;19.656;2022-10-26T17:11:10;2.38;;;1.60;;
55718;SDS011;41623;46.104;19.656;2022-10-26T17:13:44;5.15;;;2.67;;
55718;SDS011;41623;46.104;19.656;2022-10-26T17:16:11;3.75;;;2.35;;
55718;SDS011;41623;46.104;19.656;2022-10-26T17:18:39;4.28;;;2.45;;
55718;SDS011;41623;46.104;19.656;2022-10-26T17:21:06;4.90;;;2.55;;
55718;SDS011;41623;46.104;19.656;2022-10-26T17:23:32;6.32;;;2.65;;
55718;SDS011;41623;46.104;19.656;2022-10-26T17:26:02;6.97;;;2.92;;